Time;durP1;ratioP1;P1;durP2;ratioP2;P2;SDS_P1;SDS_P2;PMS_P1;PMS_P2;Temp;Humidity;BMP_temperature;BMP_pressure;BME280_temperature;BME280_humidity;BME280_pressure;Samples;Min_cycle;Max_cycle;Signal;HPM_P1;HPM_P2
2021/10/06 00:00:47;;;;;;;3.15;0.80;;;;;;;13.18;68.94;99676.91;1092681;39;20520;-76
2021/10/06 00:01:48;;;;;;;3.00;0.80;;;;;;;12.99;69.43;99683.50;1087675;54;20057;-75
2021/10/06 00:02:53;;;;;;;4.10;1.00;;;;;;;12.97;69.73;99677.47;1087613;54;20037;-75
2021/10/06 00:03:54;;;;;;;4.68;1.02;;;;;;;13.07;69.57;99686.16;1087679;54;20034;-75
2021/10/06 00:04:58;;;;;;;4.07;0.88;;;;;;;13.10;69.09;99686.66;1087635;54;20034;-76
2021/10/06 00:06:00;;;;;;;2.13;0.65;;;;;;;13.09;69.30;99679.63;1087498;54;20039;-75
2021/10/06 00:07:04;;;;;;;4.63;1.08;;;;;;;13.03;69.26;99684.84;1087500;54;20034;-81
2021/10/06 00:08:06;;;;;;;2.95;1.08;;;;;;;13.08;69.38;99683.31;1087436;54;20038;-80
2021/10/06 00:09:10;;;;;;;3.72;0.90;;;;;;;13.15;69.09;99683.47;1087466;54;20034;-76
2021/10/06 00:10:12;;;;;;;4.13;0.70;;;;;;;13.24;68.93;99687.00;1087583;54;20035;-78
2021/10/06 00:11:16;;;;;;;2.80;0.80;;;;;;;13.28;68.62;99680.25;1087483;54;20030;-78
2021/10/06 00:12:18;;;;;;;4.78;0.88;;;;;;;13.43;68.64;99684.97;1087640;54;20065;-75
2021/10/06 00:13:22;;;;;;;3.50;0.77;;;;;;;13.43;68.70;99682.28;1087463;54;20185;-80
2021/10/06 00:14:26;;;;;;;3.03;0.80;;;;;;;13.51;68.30;99688.44;1087545;54;20022;-82
2021/10/06 00:15:31;;;;;;;4.30;0.80;;;;;;;13.39;68.88;99679.94;1087568;54;20054;-83
2021/10/06 00:16:32;;;;;;;6.05;1.10;;;;;;;13.29;69.14;99689.16;1087626;54;20043;-77
2021/10/06 00:17:37;;;;;;;2.78;0.73;;;;;;;13.35;69.09;99689.31;1087653;47;20030;-82
2021/10/06 00:18:40;;;;;;;3.30;0.82;;;;;;;13.08;69.44;99687.84;1087510;54;20039;-81
2021/10/06 00:19:44;;;;;;;3.08;0.95;;;;;;;13.25;69.07;99686.81;1087677;54;20034;-82
2021/10/06 00:20:45;;;;;;;5.80;0.90;;;;;;;13.27;68.97;99687.47;1091177;39;20593;-82
2021/10/06 00:21:49;;;;;;;5.70;1.15;;;;;;;13.26;68.65;99685.81;1087745;54;20086;-81
2021/10/06 00:22:51;;;;;;;3.35;0.80;;;;;;;13.22;69.14;99689.84;1088508;46;20064;-80
2021/10/06 00:23:55;;;;;;;3.40;0.85;;;;;;;13.13;69.04;99684.66;1087451;54;20030;-76
2021/10/06 00:24:57;;;;;;;4.82;1.10;;;;;;;13.08;69.12;99693.22;1087530;54;20034;-75
2021/10/06 00:26:01;;;;;;;7.32;1.05;;;;;;;13.16;69.14;99689.69;1087557;54;21110;-77
2021/10/06 00:27:03;;;;;;;3.63;0.70;;;;;;;13.19;68.81;99690.19;1087554;54;20031;-76
2021/10/06 00:28:08;;;;;;;3.30;0.90;;;;;;;13.11;68.97;99700.94;1087600;54;20104;-76
2021/10/06 00:29:13;;;;;;;4.03;1.25;;;;;;;13.00;69.46;99698.59;1087208;54;20043;-83
2021/10/06 00:30:17;;;;;;;4.13;1.05;;;;;;;13.11;69.34;99693.72;1087302;54;20038;-82
2021/10/06 00:31:21;;;;;;;3.30;0.85;;;;;;;13.13;69.04;99690.84;1087456;54;20019;-80
2021/10/06 00:32:23;;;;;;;2.95;0.75;;;;;;;13.14;68.99;99697.06;1087388;54;20074;-83
2021/10/06 00:33:28;;;;;;;3.35;0.70;;;;;;;13.06;69.22;99700.59;1086965;54;20042;-84
2021/10/06 00:34:32;;;;;;;5.38;1.27;;;;;;;13.02;69.37;99693.91;1086992;54;20059;-81
2021/10/06 00:35:34;;;;;;;3.53;0.80;;;;;;;13.01;69.51;99692.22;1087479;54;20038;-81
2021/10/06 00:36:38;;;;;;;3.90;0.70;;;;;;;13.16;69.05;99695.06;1087556;54;20042;-81
2021/10/06 00:37:40;;;;;;;2.42;0.70;;;;;;;13.18;68.90;99701.06;1087634;54;20058;-76
2021/10/06 00:38:44;;;;;;;4.05;0.73;;;;;;;13.03;69.30;99699.09;1087546;54;20042;-77
2021/10/06 00:39:45;;;;;;;3.55;1.10;;;;;;;13.03;69.69;99703.63;1094130;39;20555;-83
2021/10/06 00:40:50;;;;;;;3.95;0.75;;;;;;;13.08;69.63;99703.94;1087320;54;20030;-82
2021/10/06 00:41:51;;;;;;;3.17;0.90;;;;;;;13.22;69.01;99705.09;1087549;54;20034;-83
2021/10/06 00:42:55;;;;;;;3.42;0.80;;;;;;;13.14;69.06;99708.63;1087417;54;20027;-76
2021/10/06 00:43:59;;;;;;;3.22;0.80;;;;;;;13.11;69.13;99703.63;1087536;54;20041;-76
2021/10/06 00:45:01;;;;;;;3.38;0.70;;;;;;;13.10;69.46;99712.69;1087878;54;20034;-76
2021/10/06 00:46:08;;;;;;;3.22;0.70;;;;;;;12.93;69.57;99710.00;1087681;54;20800;-78
2021/10/06 00:47:11;;;;;;;3.22;0.73;;;;;;;12.97;69.53;99720.38;1087956;54;20061;-77
2021/10/06 00:48:15;;;;;;;3.50;1.02;;;;;;;12.87;69.79;99717.88;1087813;54;20031;-76
2021/10/06 00:49:20;;;;;;;3.38;0.73;;;;;;;12.87;69.93;99721.41;1088351;39;20611;-77
2021/10/06 00:50:22;;;;;;;2.15;0.65;;;;;;;12.98;69.65;99714.00;1087788;54;20042;-78
2021/10/06 00:51:26;;;;;;;2.97;0.77;;;;;;;12.99;69.42;99715.69;1087611;54;20030;-79
2021/10/06 00:52:29;;;;;;;4.55;1.05;;;;;;;12.85;69.83;99714.53;1087884;54;20034;-79
2021/10/06 00:53:33;;;;;;;4.07;1.10;;;;;;;12.80;69.99;99720.41;1090313;39;20567;-82
2021/10/06 00:54:36;;;;;;;1.98;0.65;;;;;;;12.86;69.68;99727.75;1088133;46;20029;-83
2021/10/06 00:55:41;;;;;;;3.42;0.95;;;;;;;12.89;69.66;99722.06;1087698;54;20050;-84
2021/10/06 00:56:43;;;;;;;2.67;0.70;;;;;;;12.95;69.54;99723.25;1087500;54;20054;-84
2021/10/06 00:57:47;;;;;;;3.60;0.77;;;;;;;13.08;69.14;99717.38;1087620;54;20534;-84
2021/10/06 00:58:48;;;;;;;3.45;0.77;;;;;;;13.08;69.42;99717.38;1087617;54;20038;-83
2021/10/06 00:59:52;;;;;;;2.45;0.70;;;;;;;13.10;68.98;99723.41;1087485;54;20583;-84
2021/10/06 01:00:54;;;;;;;3.80;0.93;;;;;;;13.13;68.95;99724.91;1087659;54;20031;-82
2021/10/06 01:02:01;;;;;;;4.75;0.70;;;;;;;13.12;69.23;99716.03;1087484;54;20078;-82
2021/10/06 01:03:03;;;;;;;3.25;1.20;;;;;;;13.24;68.75;99716.50;1087502;54;20045;-82
2021/10/06 01:04:07;;;;;;;3.35;1.05;;;;;;;13.29;68.68;99716.81;1087633;54;20053;-82
2021/10/06 01:05:10;;;;;;;2.13;0.60;;;;;;;13.14;68.89;99724.72;1087742;54;20034;-81
2021/10/06 01:06:14;;;;;;;3.55;0.88;;;;;;;13.07;68.89;99723.75;1089036;39;20479;-83
2021/10/06 01:07:15;;;;;;;3.50;1.23;;;;;;;12.86;69.41;99730.44;1087252;54;20035;-81
2021/10/06 01:08:20;;;;;;;3.28;1.00;;;;;;;12.97;69.57;99731.13;1087747;54;20075;-78
2021/10/06 01:09:25;;;;;;;2.83;0.82;;;;;;;12.98;69.16;99728.28;1087661;54;20053;-81
2021/10/06 01:10:29;;;;;;;2.90;0.63;;;;;;;12.83;69.74;99732.63;1087848;54;20042;-79
2021/10/06 01:11:31;;;;;;;4.15;1.38;;;;;;;12.91;69.64;99729.94;1087694;54;20068;-79
2021/10/06 01:12:35;;;;;;;4.65;0.90;;;;;;;12.99;69.16;99737.16;1087809;54;20030;-79
2021/10/06 01:13:38;;;;;;;3.85;1.00;;;;;;;12.88;69.27;99739.16;1087430;54;20043;-83
2021/10/06 01:14:43;;;;;;;3.17;0.70;;;;;;;12.94;69.26;99733.13;1088807;46;20065;-84
2021/10/06 01:15:44;;;;;;;5.45;1.10;;;;;;;12.74;69.67;99729.13;1087749;54;20050;-83
2021/10/06 01:16:49;;;;;;;4.28;1.20;;;;;;;12.75;69.71;99736.16;1087792;54;20031;-84
2021/10/06 01:17:55;;;;;;;2.67;0.80;;;;;;;12.74;69.61;99735.31;1087963;46;20030;-83
2021/10/06 01:18:57;;;;;;;2.88;0.80;;;;;;;12.68;69.60;99729.75;1087730;54;20050;-83
2021/10/06 01:20:02;;;;;;;3.17;0.80;;;;;;;12.58;70.10;99725.41;1087818;54;20038;-83
2021/10/06 01:21:14;;;;;;;5.88;1.52;;;;;;;12.72;69.58;99729.25;1087479;54;20069;-83
2021/10/06 01:22:16;;;;;;;2.88;0.70;;;;;;;12.83;69.36;99730.81;1087814;54;20045;-82
2021/10/06 01:23:20;;;;;;;2.60;0.70;;;;;;;12.78;69.28;99728.63;1087647;54;20031;-84
2021/10/06 01:24:23;;;;;;;3.38;0.80;;;;;;;12.81;69.24;99730.13;1088759;39;20550;-84
2021/10/06 01:25:28;;;;;;;2.88;0.85;;;;;;;12.93;68.90;99726.09;1087813;54;20050;-84
2021/10/06 01:26:29;;;;;;;2.90;0.80;;;;;;;13.02;68.63;99742.19;1087653;54;20038;-83
2021/10/06 01:27:33;;;;;;;2.55;0.75;;;;;;;13.11;68.55;99733.13;1087262;54;20038;-82
2021/10/06 01:28:35;;;;;;;3.05;0.90;;;;;;;13.08;68.55;99728.09;1087392;54;20026;-80
2021/10/06 01:29:39;;;;;;;3.40;0.63;;;;;;;13.01;68.68;99740.53;1087439;54;20030;-81
2021/10/06 01:30:41;;;;;;;4.45;1.00;;;;;;;12.99;68.81;99737.16;1087563;54;20038;-84
2021/10/06 01:31:47;;;;;;;3.13;0.70;;;;;;;13.01;68.44;99741.34;1087529;54;20083;-82
2021/10/06 01:32:48;;;;;;;2.95;0.80;;;;;;;13.02;68.68;99734.97;1087457;54;20038;-81
2021/10/06 01:33:53;;;;;;;4.07;1.23;;;;;;;12.90;68.98;99742.53;1087904;46;20018;-84
2021/10/06 01:34:59;;;;;;;4.00;0.95;;;;;;;12.77;69.17;99734.97;1087370;54;20059;-78
2021/10/06 01:36:03;;;;;;;3.72;0.73;;;;;;;12.74;69.16;99737.16;1087345;54;20144;-80
2021/10/06 01:37:10;;;;;;;2.65;0.68;;;;;;;12.82;69.02;99742.53;1087220;54;20976;-82
2021/10/06 01:38:11;;;;;;;2.50;0.70;;;;;;;12.74;69.43;99740.66;1087456;54;20042;-81
2021/10/06 01:39:16;;;;;;;3.38;0.80;;;;;;;12.80;69.05;99731.13;1087534;54;20037;-76
2021/10/06 01:40:22;;;;;;;5.25;1.10;;;;;;;12.94;68.87;99740.34;1087825;54;20035;-76
2021/10/06 01:41:26;;;;;;;3.53;1.10;;;;;;;13.02;68.43;99736.84;1091867;39;20701;-76
2021/10/06 01:42:27;;;;;;;2.15;0.65;;;;;;;13.10;68.21;99734.97;1087840;54;20042;-76
2021/10/06 01:43:32;;;;;;;2.00;0.55;;;;;;;13.13;68.14;99749.88;1087677;54;20034;-76
2021/10/06 01:44:33;;;;;;;4.05;1.00;;;;;;;12.87;68.54;99750.91;1087744;54;20855;-77
2021/10/06 01:46:43;;;;;;;3.03;0.88;;;;;;;13.07;68.14;99746.06;1088345;54;20037;-79
2021/10/06 01:47:46;;;;;;;3.15;0.90;;;;;;;12.98;68.43;99744.38;1088434;54;20034;-80
2021/10/06 01:48:52;;;;;;;4.20;0.98;;;;;;;12.86;68.85;99741.19;1088463;54;20019;-79
2021/10/06 01:49:55;;;;;;;3.30;0.73;;;;;;;13.00;68.22;99754.94;1089669;46;20090;-79
2021/10/06 01:51:09;;;;;;;3.17;0.75;;;;;;;12.88;68.29;99749.91;1088436;54;20021;-80
2021/10/06 01:52:15;;;;;;;4.70;0.88;;;;;;;12.94;68.68;99751.06;1088360;54;20026;-80
2021/10/06 01:53:19;;;;;;;2.85;0.80;;;;;;;12.89;68.58;99754.25;1088119;54;20721;-79
2021/10/06 01:54:20;;;;;;;2.28;0.70;;;;;;;12.83;68.64;99754.09;1088114;54;20030;-80
2021/10/06 01:55:29;;;;;;;3.17;1.02;;;;;;;12.78;68.90;99751.91;1087749;54;20035;-80
2021/10/06 01:56:30;;;;;;;5.25;0.98;;;;;;;12.67;68.95;99754.91;1087711;54;20042;-81
2021/10/06 01:57:35;;;;;;;2.67;0.80;;;;;;;12.69;69.21;99752.91;1087963;54;20036;-79
2021/10/06 01:58:36;;;;;;;3.08;1.15;;;;;;;12.64;69.27;99754.25;1088000;54;20670;-79
2021/10/06 01:59:42;;;;;;;2.58;0.63;;;;;;;12.76;68.80;99751.22;1088003;54;20021;-79
2021/10/06 02:00:45;;;;;;;2.65;0.80;;;;;;;12.57;69.50;99763.13;1087887;54;20038;-79
2021/10/06 02:01:50;;;;;;;2.65;0.90;;;;;;;12.62;69.45;99756.25;1087866;54;20030;-78
2021/10/06 02:02:51;;;;;;;5.00;1.00;;;;;;;12.55;69.63;99757.94;1088038;54;20034;-79
2021/10/06 02:03:55;;;;;;;3.95;0.98;;;;;;;12.46;69.77;99759.75;1087877;54;20023;-79
2021/10/06 02:04:57;;;;;;;2.42;0.70;;;;;;;12.70;69.19;99759.94;1088449;46;20748;-78
2021/10/06 02:06:01;;;;;;;4.57;0.85;;;;;;;12.57;69.55;99757.75;1087860;54;20038;-79
2021/10/06 02:07:03;;;;;;;3.55;0.93;;;;;;;12.64;69.48;99766.81;1088027;54;20038;-80
2021/10/06 02:08:14;;;;;;;5.03;0.98;;;;;;;12.64;69.09;99767.66;1088341;54;20038;-79
2021/10/06 02:09:15;;;;;;;;;;;;;;;12.57;69.50;99768.47;1088472;54;20034;-79
2021/10/06 02:10:19;;;;;;;2.83;0.80;;;;;;;12.66;69.32;99764.81;1088279;54;19945;-79
2021/10/06 02:11:22;;;;;;;3.83;0.77;;;;;;;12.56;69.22;99770.34;1088360;54;20057;-79
2021/10/06 02:12:26;;;;;;;3.45;0.90;;;;;;;12.70;68.85;99762.63;1088314;54;20030;-79
2021/10/06 02:13:28;;;;;;;6.22;1.00;;;;;;;12.70;69.08;99771.53;1088304;54;20038;-79
2021/10/06 02:14:32;;;;;;;2.42;0.70;;;;;;;12.73;68.80;99768.50;1088298;54;20022;-79
2021/10/06 02:15:34;;;;;;;3.72;0.80;;;;;;;12.73;69.03;99778.41;1088157;54;20038;-80
2021/10/06 02:16:38;;;;;;;3.30;0.98;;;;;;;12.80;68.83;99772.19;1092116;46;20042;-79
2021/10/06 02:17:41;;;;;;;2.83;0.60;;;;;;;12.83;68.79;99772.88;1088366;54;20042;-80
2021/10/06 02:18:45;;;;;;;2.20;0.60;;;;;;;12.83;68.82;99781.75;1088196;54;20058;-80
2021/10/06 02:19:48;;;;;;;2.67;0.70;;;;;;;12.80;68.90;99782.91;1088299;54;20026;-79
2021/10/06 02:20:52;;;;;;;4.05;0.90;;;;;;;12.92;68.44;99780.78;1088011;54;20031;-79
2021/10/06 02:21:55;;;;;;;3.92;0.98;;;;;;;12.81;68.72;99775.72;1088025;54;20070;-79
2021/10/06 02:23:00;;;;;;;2.58;0.70;;;;;;;12.95;68.59;99777.72;1087986;54;20119;-80
2021/10/06 02:24:05;;;;;;;3.38;0.93;;;;;;;13.00;68.09;99776.41;1088101;54;20031;-79
2021/10/06 02:25:10;;;;;;;4.20;0.80;;;;;;;13.04;68.01;99775.03;1088190;54;20040;-80
2021/10/06 02:26:12;;;;;;;2.63;0.82;;;;;;;13.10;67.84;99777.09;1088102;54;20053;-81
2021/10/06 02:27:16;;;;;;;1.95;0.57;;;;;;;13.13;68.00;99775.91;1088258;54;20411;-78
2021/10/06 02:28:18;;;;;;;2.42;0.90;;;;;;;13.19;67.90;99778.75;1096934;39;20626;-80
2021/10/06 02:29:22;;;;;;;2.78;0.70;;;;;;;13.14;68.09;99777.59;1088213;54;20146;-79
2021/10/06 02:30:24;;;;;;;2.85;0.80;;;;;;;13.19;67.87;99778.75;1088193;54;20036;-80
2021/10/06 02:31:29;;;;;;;3.25;0.88;;;;;;;13.15;68.12;99774.72;1088272;54;20046;-81
2021/10/06 02:32:32;;;;;;;2.92;0.70;;;;;;;13.22;67.73;99767.69;1088157;54;20092;-77
2021/10/06 02:33:36;;;;;;;3.47;0.80;;;;;;;13.24;67.90;99773.72;1087823;54;20034;-80
2021/10/06 02:34:40;;;;;;;3.20;0.70;;;;;;;13.29;67.52;99767.84;1087951;54;20019;-79
2021/10/06 02:35:44;;;;;;;3.88;0.70;;;;;;;13.29;67.37;99764.31;1088183;54;20033;-80
2021/10/06 02:36:48;;;;;;;3.83;0.80;;;;;;;13.32;67.22;99766.69;1088229;54;20031;-79
2021/10/06 02:37:53;;;;;;;3.15;1.02;;;;;;;13.25;67.69;99772.69;1088301;54;20034;-78
2021/10/06 02:38:54;;;;;;;3.15;0.80;;;;;;;13.32;67.42;99769.38;1088181;54;20034;-80
2021/10/06 02:40:01;;;;;;;4.07;1.10;;;;;;;13.34;67.52;99768.19;1087936;54;20721;-79
2021/10/06 02:41:03;;;;;;;2.90;1.00;;;;;;;13.34;67.35;99765.50;1087890;54;20038;-78
2021/10/06 02:42:08;;;;;;;5.03;1.20;;;;;;;13.41;67.37;99768.38;1087732;54;20038;-80
2021/10/06 02:43:10;;;;;;;2.55;0.60;;;;;;;13.44;67.15;99773.38;1087935;54;20022;-80
2021/10/06 02:44:15;;;;;;;2.38;0.63;;;;;;;13.49;66.99;99773.72;1089123;39;20721;-79
2021/10/06 02:45:20;;;;;;;1.77;0.60;;;;;;;13.48;67.26;99771.19;1087988;54;20643;-79
2021/10/06 02:46:24;;;;;;;2.22;0.60;;;;;;;13.44;67.21;99773.38;1090336;39;20274;-79
2021/10/06 02:47:26;;;;;;;5.05;0.70;;;;;;;13.32;67.67;99770.19;1089037;46;20034;-81
2021/10/06 02:48:30;;;;;;;3.28;0.80;;;;;;;13.35;67.59;99769.84;1088103;54;20022;-79
2021/10/06 02:49:36;;;;;;;4.05;0.80;;;;;;;13.19;67.77;99781.44;1088126;54;20026;-80
2021/10/06 02:50:37;;;;;;;5.72;1.00;;;;;;;13.21;67.66;99783.94;1088066;54;20038;-80
2021/10/06 02:51:43;;;;;;;4.07;0.88;;;;;;;13.10;67.48;99775.22;1088052;54;20027;-79
2021/10/06 02:52:45;;;;;;;4.75;1.08;;;;;;;13.10;67.56;99780.59;1088173;54;20015;-80
2021/10/06 02:53:55;;;;;;;4.68;1.20;;;;;;;13.25;67.08;99775.38;1088074;54;20030;-80
2021/10/06 02:54:59;;;;;;;3.88;0.98;;;;;;;13.14;67.38;99786.47;1088294;54;20038;-79
2021/10/06 02:56:06;;;;;;;3.05;0.75;;;;;;;13.13;67.64;99776.72;1088105;54;20041;-80
2021/10/06 02:57:07;;;;;;;3.20;1.13;;;;;;;13.12;67.54;99785.81;1088224;54;20026;-80
2021/10/06 02:58:16;;;;;;;4.05;1.00;;;;;;;13.08;67.55;99790.66;1088177;54;20036;-80
2021/10/06 02:59:18;;;;;;;4.65;0.98;;;;;;;12.99;67.86;99774.72;1088139;54;20038;-79
2021/10/06 03:00:25;;;;;;;4.45;0.82;;;;;;;12.89;67.85;99780.25;1088165;54;20034;-79
2021/10/06 03:01:27;;;;;;;3.90;1.10;;;;;;;12.90;67.80;99776.56;1088233;54;20038;-80
2021/10/06 03:02:33;;;;;;;3.92;1.13;;;;;;;12.94;67.88;99772.53;1091259;39;20903;-80
2021/10/06 03:03:34;;;;;;;3.80;1.00;;;;;;;13.01;67.63;99783.44;1088302;54;20038;-79
2021/10/06 03:04:38;;;;;;;4.32;0.98;;;;;;;13.08;67.42;99779.09;1088141;54;20026;-80
2021/10/06 03:05:40;;;;;;;2.80;0.70;;;;;;;13.16;67.53;99786.31;1088089;54;20018;-80
2021/10/06 03:06:44;;;;;;;2.95;0.80;;;;;;;13.13;67.28;99787.47;1088307;54;20030;-80
2021/10/06 03:07:48;;;;;;;3.85;0.98;;;;;;;13.17;67.24;99786.13;1088232;54;20042;-79
2021/10/06 03:08:50;;;;;;;4.18;1.00;;;;;;;13.16;67.30;99780.94;1088284;54;20022;-80
2021/10/06 03:09:54;;;;;;;2.72;0.93;;;;;;;13.13;67.58;99792.00;1088330;54;20041;-78
2021/10/06 03:10:59;;;;;;;4.38;1.13;;;;;;;12.98;67.71;99790.00;1088166;54;20014;-78
2021/10/06 03:12:03;;;;;;;2.55;0.75;;;;;;;12.95;67.98;99798.38;1088542;39;20592;-80
2021/10/06 03:13:05;;;;;;;3.83;0.88;;;;;;;12.94;68.19;99789.47;1088715;39;20603;-80
2021/10/06 03:14:10;;;;;;;3.22;0.80;;;;;;;12.91;68.19;99788.97;1088097;54;20104;-79
2021/10/06 03:15:12;;;;;;;3.22;0.80;;;;;;;12.88;68.49;99798.19;1087853;54;20030;-80
2021/10/06 03:16:16;;;;;;;3.28;0.85;;;;;;;12.83;68.32;99792.50;1087859;54;20031;-79
2021/10/06 03:17:18;;;;;;;4.47;1.02;;;;;;;12.82;68.74;99796.19;1087771;54;20034;-79
2021/10/06 03:18:22;;;;;;;3.72;0.85;;;;;;;12.79;68.62;99792.00;1087924;54;20037;-80
2021/10/06 03:19:23;;;;;;;2.42;0.73;;;;;;;12.89;68.26;99799.88;1087872;54;20046;-80
2021/10/06 03:20:28;;;;;;;3.03;0.70;;;;;;;12.87;68.42;99796.50;1087787;54;20030;-78
2021/10/06 03:21:29;;;;;;;4.30;0.95;;;;;;;12.94;67.94;99802.88;1087816;54;21032;-80
2021/10/06 03:22:33;;;;;;;4.13;0.73;;;;;;;12.83;68.43;99808.59;1087851;54;20034;-80
2021/10/06 03:23:35;;;;;;;4.15;1.17;;;;;;;12.86;68.72;99802.88;1087811;54;20030;-78
2021/10/06 03:24:39;;;;;;;4.55;1.10;;;;;;;12.83;68.57;99811.28;1087753;54;20047;-79
2021/10/06 03:25:41;;;;;;;4.00;1.00;;;;;;;12.90;68.29;99806.06;1087757;54;20030;-80
2021/10/06 03:26:47;;;;;;;4.35;0.98;;;;;;;13.00;68.29;99803.25;1087787;54;20034;-79
2021/10/06 03:27:49;;;;;;;4.25;0.88;;;;;;;12.83;68.57;99808.59;1089311;39;20950;-80
2021/10/06 03:28:53;;;;;;;3.08;0.85;;;;;;;12.88;68.59;99806.25;1087698;54;20034;-79
2021/10/06 03:29:55;;;;;;;3.60;1.10;;;;;;;12.78;68.99;99808.22;1087906;54;20023;-80
2021/10/06 03:30:59;;;;;;;4.25;1.13;;;;;;;12.69;69.23;99809.22;1087888;54;20682;-80
2021/10/06 03:32:00;;;;;;;2.45;0.77;;;;;;;12.79;68.77;99812.59;1087986;54;20038;-79
2021/10/06 03:33:05;;;;;;;5.03;1.02;;;;;;;12.77;68.89;99809.22;1087802;54;20115;-79
2021/10/06 03:34:07;;;;;;;5.47;1.23;;;;;;;12.79;68.90;99808.09;1087930;54;20018;-80
2021/10/06 03:35:11;;;;;;;5.95;1.10;;;;;;;12.84;68.65;99799.53;1087864;54;20098;-79
2021/10/06 03:36:15;;;;;;;4.07;1.00;;;;;;;12.77;69.08;99809.22;1090835;39;20594;-80
2021/10/06 03:37:17;;;;;;;4.15;1.10;;;;;;;12.73;69.17;99808.72;1087854;47;20034;-80
2021/10/06 03:38:21;;;;;;;4.45;0.95;;;;;;;12.67;69.16;99809.41;1095753;31;20729;-80
2021/10/06 03:39:23;;;;;;;3.40;0.85;;;;;;;12.78;69.05;99818.97;1087836;54;20034;-81
2021/10/06 03:40:27;;;;;;;4.35;1.30;;;;;;;12.65;69.47;99816.75;1087837;54;20042;-81
2021/10/06 03:41:28;;;;;;;5.10;1.00;;;;;;;12.65;69.57;99816.75;1087974;54;20709;-79
2021/10/06 03:42:35;;;;;;;5.82;1.30;;;;;;;12.58;69.82;99816.56;1087981;54;20050;-80
2021/10/06 03:43:39;;;;;;;4.47;1.17;;;;;;;12.53;69.97;99818.91;1087907;54;20740;-80
2021/10/06 03:44:41;;;;;;;3.63;0.85;;;;;;;12.56;69.98;99817.75;1087852;54;20034;-80
2021/10/06 03:45:45;;;;;;;5.07;1.00;;;;;;;12.47;70.37;99822.22;1087915;54;20057;-80
2021/10/06 03:46:47;;;;;;;3.63;1.10;;;;;;;12.58;70.09;99819.25;1090839;39;20566;-78
2021/10/06 03:47:51;;;;;;;2.67;0.70;;;;;;;12.61;69.73;99820.78;1087351;54;20026;-80
2021/10/06 03:48:52;;;;;;;4.75;1.27;;;;;;;12.58;70.14;99815.75;1087820;54;20034;-79
2021/10/06 03:49:57;;;;;;;3.80;1.00;;;;;;;12.56;70.36;99818.59;1087903;54;20033;-81
2021/10/06 03:51:01;;;;;;;5.00;0.90;;;;;;;12.70;69.84;99822.47;1087847;54;20030;-81
2021/10/06 03:52:03;;;;;;;3.50;0.82;;;;;;;12.59;70.26;99814.75;1087824;54;20041;-81
2021/10/06 03:53:08;;;;;;;4.03;1.00;;;;;;;12.57;70.12;99820.25;1087594;54;20090;-78
2021/10/06 03:54:09;;;;;;;5.25;1.20;;;;;;;12.55;70.50;99824.09;1087628;54;20038;-80
2021/10/06 03:55:14;;;;;;;5.35;1.10;;;;;;;12.47;70.57;99825.75;1087649;54;20035;-79
2021/10/06 03:56:15;;;;;;;3.75;0.75;;;;;;;12.57;70.10;99830.97;1087633;54;20042;-80
2021/10/06 03:57:19;;;;;;;3.95;0.82;;;;;;;12.60;70.10;99819.94;1090599;46;20042;-80
2021/10/06 03:58:23;;;;;;;4.30;0.93;;;;;;;12.62;69.94;99828.66;1087517;54;20031;-80
2021/10/06 03:59:28;;;;;;;2.58;0.80;;;;;;;12.76;69.54;99829.00;1087636;54;20030;-81
2021/10/06 04:00:30;;;;;;;2.80;0.88;;;;;;;12.88;69.13;99827.69;1087209;54;20077;-82
2021/10/06 04:01:34;;;;;;;2.80;1.10;;;;;;;12.77;69.54;99822.66;1089465;39;20919;-80
2021/10/06 04:02:36;;;;;;;3.53;0.98;;;;;;;12.79;69.38;99828.69;1087640;54;20026;-79
2021/10/06 04:03:40;;;;;;;4.57;1.25;;;;;;;12.64;69.65;99823.97;1087734;54;20042;-79
2021/10/06 04:04:42;;;;;;;4.55;1.15;;;;;;;12.54;70.25;99831.31;1087718;54;20057;-80
2021/10/06 04:05:46;;;;;;;4.88;1.25;;;;;;;12.60;70.06;99822.59;1087705;54;20037;-80
2021/10/06 04:06:47;;;;;;;3.83;1.20;;;;;;;12.75;69.83;99830.03;1087741;54;20038;-80
2021/10/06 04:07:51;;;;;;;3.58;0.90;;;;;;;12.76;69.68;99829.00;1087783;54;20034;-79
2021/10/06 04:08:53;;;;;;;3.60;0.93;;;;;;;12.70;69.58;99830.53;1087832;54;20034;-80
2021/10/06 04:09:57;;;;;;;5.05;1.30;;;;;;;12.67;69.92;99835.34;1087755;54;20070;-81
2021/10/06 04:11:02;;;;;;;5.47;1.20;;;;;;;12.58;69.99;99835.34;1087738;54;20036;-80
2021/10/06 04:12:06;;;;;;;4.65;1.27;;;;;;;12.58;70.02;99839.88;1087699;54;20030;-80
2021/10/06 04:13:10;;;;;;;4.35;1.13;;;;;;;12.52;70.13;99833.31;1087812;54;20039;-80
2021/10/06 04:14:14;;;;;;;4.63;1.00;;;;;;;12.63;70.11;99838.38;1087689;54;20053;-78
2021/10/06 04:15:19;;;;;;;5.00;1.17;;;;;;;12.60;69.75;99835.19;1087701;54;20038;-80
2021/10/06 04:16:20;;;;;;;7.50;1.20;;;;;;;12.51;70.05;99837.00;1087759;54;20094;-80
2021/10/06 04:17:24;;;;;;;5.82;1.33;;;;;;;12.53;70.06;99843.03;1087849;54;20042;-78
2021/10/06 04:18:26;;;;;;;8.23;1.25;;;;;;;12.54;70.03;99839.38;1087775;54;20038;-80
2021/10/06 04:19:30;;;;;;;4.10;1.30;;;;;;;12.67;70.19;99846.09;1087810;54;20030;-79
2021/10/06 04:20:32;;;;;;;6.30;1.30;;;;;;;12.69;69.70;99844.09;1088013;54;20038;-80
2021/10/06 04:21:36;;;;;;;4.80;1.15;;;;;;;12.57;70.15;99852.44;1087931;54;20031;-80
2021/10/06 04:22:37;;;;;;;4.10;0.90;;;;;;;12.58;70.29;99850.59;1088102;54;20035;-80
2021/10/06 04:23:41;;;;;;;3.47;1.15;;;;;;;12.68;70.10;99851.31;1088117;54;20038;-81
2021/10/06 04:24:43;;;;;;;4.60;1.10;;;;;;;12.65;70.00;99848.94;1088027;54;20030;-79
2021/10/06 04:25:47;;;;;;;4.40;0.98;;;;;;;12.48;70.38;99854.25;1088014;54;20034;-79
2021/10/06 04:26:49;;;;;;;5.55;1.52;;;;;;;12.45;70.40;99856.41;1088032;54;20042;-80
2021/10/06 04:27:53;;;;;;;5.30;1.00;;;;;;;12.41;70.82;99855.91;1088204;54;20031;-81
2021/10/06 04:28:55;;;;;;;4.95;1.40;;;;;;;12.55;70.47;99858.97;1088060;54;20041;-82
2021/10/06 04:30:02;;;;;;;3.55;1.13;;;;;;;12.39;70.80;99870.44;1088092;54;20036;-79
2021/10/06 04:31:04;;;;;;;3.63;1.00;;;;;;;12.27;71.19;99878.81;1088031;54;20031;-79
2021/10/06 04:32:08;;;;;;;4.13;0.90;;;;;;;12.35;71.00;99869.09;1088149;54;20038;-79
2021/10/06 04:33:10;;;;;;;3.28;0.90;;;;;;;12.30;71.16;99877.63;1088113;54;20042;-79
2021/10/06 04:34:14;;;;;;;4.45;1.20;;;;;;;12.34;70.94;99862.91;1088040;54;20767;-80
2021/10/06 04:35:16;;;;;;;3.42;1.00;;;;;;;12.35;71.14;99877.16;1088066;54;20035;-80
2021/10/06 04:36:21;;;;;;;4.35;0.93;;;;;;;12.22;71.57;99883.78;1088114;54;20037;-80
2021/10/06 04:37:22;;;;;;;5.13;0.93;;;;;;;12.29;71.24;99884.81;1088158;54;20038;-80
2021/10/06 04:38:26;;;;;;;5.50;1.40;;;;;;;12.35;71.01;99885.19;1088032;54;20037;-80
2021/10/06 04:39:28;;;;;;;3.45;0.95;;;;;;;12.38;71.24;99880.34;1088086;54;20034;-79
2021/10/06 04:40:32;;;;;;;5.50;1.10;;;;;;;12.36;71.16;99889.56;1088143;54;20035;-79
2021/10/06 04:41:34;;;;;;;5.07;1.25;;;;;;;12.44;71.07;99884.22;1088072;54;20034;-79
2021/10/06 04:42:38;;;;;;;3.90;1.08;;;;;;;12.36;71.16;99886.88;1088302;46;20035;-80
2021/10/06 04:43:42;;;;;;;5.47;1.33;;;;;;;12.43;71.08;99888.72;1088064;54;20044;-79
2021/10/06 04:44:44;;;;;;;4.63;1.23;;;;;;;12.29;71.29;99886.66;1088025;54;20042;-80
2021/10/06 04:45:51;;;;;;;6.20;1.40;;;;;;;12.22;71.34;99886.47;1088118;54;20045;-79
2021/10/06 04:46:52;;;;;;;6.47;1.10;;;;;;;12.30;71.32;99883.00;1089072;46;20039;-79
2021/10/06 04:47:56;;;;;;;4.45;1.00;;;;;;;12.26;71.16;99881.63;1088088;54;20086;-79
2021/10/06 04:48:58;;;;;;;5.70;1.20;;;;;;;12.34;71.18;99881.66;1088085;54;20057;-80
2021/10/06 04:50:03;;;;;;;6.78;1.30;;;;;;;12.34;70.84;99889.69;1088197;46;20031;-81
2021/10/06 04:51:05;;;;;;;5.00;1.27;;;;;;;12.29;71.28;99892.03;1088153;54;20022;-80
2021/10/06 04:52:09;;;;;;;3.90;0.90;;;;;;;12.31;71.27;99890.03;1088125;54;20624;-79
2021/10/06 04:53:12;;;;;;;4.28;1.02;;;;;;;12.30;71.03;99899.06;1088158;54;20030;-80
2021/10/06 04:54:16;;;;;;;6.68;2.50;;;;;;;12.25;71.28;99891.50;1088032;54;20946;-80
2021/10/06 04:55:17;;;;;;;3.65;1.00;;;;;;;12.26;71.31;99892.34;1088018;54;20018;-79
2021/10/06 04:56:21;;;;;;;4.78;1.13;;;;;;;12.42;70.91;99896.94;1087946;54;20116;-79
2021/10/06 04:57:23;;;;;;;3.38;1.08;;;;;;;12.38;71.09;99898.25;1088052;54;20039;-80
2021/10/06 04:58:27;;;;;;;4.97;1.13;;;;;;;12.31;71.05;99890.03;1088073;54;20058;-80
2021/10/06 04:59:31;;;;;;;4.40;1.30;;;;;;;12.33;71.27;99902.28;1088139;54;20038;-81
2021/10/06 05:00:33;;;;;;;3.85;1.20;;;;;;;12.27;71.38;99894.03;1088181;54;20045;-80